Terminal Aerodrome Forecast
Issued by NWS Sioux Falls, SD

Home | Current Version | Previous Version | Text Only | Print | Product List | Glossary Off
Versions: 1 2 3 4 5 6 7 8 9 10 11 12 13 14 15 16 17 18

000
FTUS43 KFSD 241020 AAB
TAFFSD
TAF AMD
KFSD 241020Z 2410/2506 29011G17KT P6SM BKN025
     FM241300 31018G27KT P6SM BKN025
     FM250000 34007KT P6SM SCT025
     FM250300 02004KT P6SM OVC060=

USA.gov is the U.S. government's official web portal to all federal, state and local government web resources and services.